PAUN/UNK METAR and TAF weather

Enter ICAO airport designator
Station Type Date Time Source
PAUN METAR 2019/12/09 21:56 UTC NOAA

PAUN 092156Z AUTO 09020G23KT 10SM CLR 00/M05 A2902 RMK AO2 PK WND 08030/2058 SLP830 T00001050 FZRANO


Station Type Date Time Source
PAUN Decoded METAR 2019/12/09 21:56 UTC NOAA

Unalakleet, AK, United States (PAUN) 63-53N 160-48W 6M
Dec 09, 2019 - 04:56 PM EST / 2019.12.09 2156 UTC
Wind: from the E (090 degrees) at 23 MPH (20 KT) gusting to 26 MPH (23 KT):0
Visibility: 10 mile(s):0
Sky conditions: clear
Temperature: 32.0 F (0.0 C)
Windchill: 19 F (-7 C):1
Dew Point: 23.0 F (-5.0 C)
Relative Humidity: 69%
Pressure (altimeter): 29.02 in. Hg (982 hPa)
ob: PAUN 092156Z AUTO 09020G23KT 10SM CLR 00/M05 A2902 RMK AO2 PK WND 08030/2058 SLP830 T00001050 FZRANO
cycle: 22

Station Type Date Time Source
PAUN TAF 2019/12/09 18:24 UTC NOAA

PAUN 091723Z 0918/1018 06034G41KT P6SM BKN080 BKN100
FM092200 09035G43KT P6SM OVC100

Example: see airport list